createdAt,value
2019-04-20T00:01:19.918Z,11.00
2019-04-20T00:03:45.674Z,11.00
2019-04-20T00:06:17.351Z,11.00
2019-04-20T00:08:55.720Z,11.00
2019-04-20T00:11:27.271Z,11.00
2019-04-20T00:14:00.151Z,11.00
2019-04-20T00:16:25.193Z,10.90
2019-04-20T00:18:59.167Z,10.90
2019-04-20T00:21:53.506Z,11.00
2019-04-20T00:24:35.874Z,11.00
2019-04-20T00:27:32.962Z,11.00
2019-04-20T00:29:54.739Z,11.00
2019-04-20T00:32:19.772Z,11.00
2019-04-20T00:34:46.829Z,10.90
2019-04-20T00:37:23.258Z,10.90
2019-04-20T00:39:55.988Z,10.90
2019-04-20T00:42:34.092Z,10.90
2019-04-20T00:45:07.611Z,10.90
2019-04-20T00:47:44.629Z,10.90
2019-04-20T00:50:19.862Z,10.90
2019-04-20T00:52:50.856Z,10.90
2019-04-20T00:55:08.331Z,10.90
2019-04-20T00:57:48.566Z,10.90
2019-04-20T01:00:26.797Z,10.80
2019-04-20T01:02:55.334Z,10.80
2019-04-20T01:05:46.611Z,10.80
2019-04-20T01:08:31.827Z,10.80
2019-04-20T01:11:03.144Z,10.70
2019-04-20T01:13:42.123Z,10.70
2019-04-20T01:16:18.497Z,10.70
2019-04-20T01:18:39.451Z,10.70
2019-04-20T01:21:14.035Z,10.70
2019-04-20T01:23:49.587Z,10.70
2019-04-20T01:26:17.310Z,10.70
2019-04-20T01:28:58.466Z,10.60
2019-04-20T01:31:27.185Z,10.60
2019-04-20T01:33:58.799Z,10.60
2019-04-20T01:36:40.666Z,10.60
2019-04-20T01:39:09.347Z,10.60
2019-04-20T01:41:27.054Z,10.60
2019-04-20T01:43:58.566Z,10.60
2019-04-20T01:46:30.499Z,10.60
2019-04-20T01:49:07.891Z,10.60
2019-04-20T01:51:44.241Z,10.60
2019-04-20T01:54:26.110Z,10.60
2019-04-20T01:56:58.898Z,10.60
2019-04-20T01:59:46.026Z,10.60
2019-04-20T02:02:24.357Z,10.60
2019-04-20T02:05:04.836Z,10.50
2019-04-20T02:07:35.489Z,10.40
2019-04-20T02:10:05.055Z,10.40
2019-04-20T02:12:37.216Z,10.40
2019-04-20T02:15:13.057Z,10.40
2019-04-20T02:17:44.068Z,10.40
2019-04-20T02:20:34.028Z,10.40
2019-04-20T02:22:59.041Z,10.30
2019-04-20T02:25:16.344Z,10.30
2019-04-20T02:27:51.808Z,10.30
2019-04-20T02:30:59.970Z,10.30
2019-04-20T02:33:41.934Z,10.30
2019-04-20T02:36:40.369Z,10.30
2019-04-20T02:39:23.907Z,10.30
2019-04-20T02:44:25.622Z,10.30
2019-04-20T02:46:49.206Z,10.30
2019-04-20T02:51:52.685Z,10.30
2019-04-20T02:54:20.266Z,10.30
2019-04-20T02:56:59.132Z,10.30
2019-04-20T03:01:47.346Z,10.30
2019-04-20T03:04:02.054Z,10.40
2019-04-20T03:06:39.745Z,10.40
2019-04-20T03:09:26.991Z,10.40
2019-04-20T03:12:06.203Z,10.40
2019-04-20T03:14:22.818Z,10.40
2019-04-20T03:17:08.039Z,10.30
2019-04-20T03:19:28.854Z,10.20
2019-04-20T03:22:08.863Z,10.20
2019-04-20T03:24:43.709Z,10.10
2019-04-20T03:27:14.593Z,10.10
2019-04-20T03:30:04.234Z,10.10
2019-04-20T03:33:02.456Z,10.10
2019-04-20T03:35:23.472Z,10.10
2019-04-20T03:37:55.602Z,10.10
2019-04-20T03:40:18.907Z,10.10
2019-04-20T03:42:34.950Z,10.10
2019-04-20T03:45:12.233Z,10.10
2019-04-20T03:47:52.963Z,10.10
2019-04-20T03:50:37.738Z,10.10
2019-04-20T03:53:19.571Z,10.00
2019-04-20T03:56:11.723Z,10.00
2019-04-20T03:58:50.381Z,10.00
2019-04-20T04:01:58.670Z,10.00
2019-04-20T04:04:14.944Z,10.00
2019-04-20T04:06:34.703Z,10.00
2019-04-20T04:09:13.615Z,9.90
2019-04-20T04:12:04.012Z,9.90
2019-04-20T04:14:22.445Z,9.90
2019-04-20T04:16:56.980Z,9.90
2019-04-20T04:19:30.015Z,9.80
2019-04-20T04:22:08.886Z,9.80
2019-04-20T04:24:39.447Z,9.90
2019-04-20T04:27:16.204Z,9.80
2019-04-20T04:29:55.619Z,9.80
2019-04-20T04:32:50.086Z,9.70
2019-04-20T04:35:00.605Z,9.70
2019-04-20T04:37:35.497Z,9.70
2019-04-20T04:40:14.907Z,9.70
2019-04-20T04:42:35.427Z,9.70
2019-04-20T04:44:56.478Z,9.70
2019-04-20T04:47:19.833Z,9.70
2019-04-20T04:50:01.074Z,9.70
2019-04-20T04:52:29.372Z,9.70
2019-04-20T04:55:09.604Z,9.70
2019-04-20T04:57:26.871Z,9.70
2019-04-20T04:59:59.420Z,9.70
2019-04-20T05:02:37.343Z,9.60
2019-04-20T05:05:35.844Z,9.60
2019-04-20T05:07:56.532Z,9.60
2019-04-20T05:10:19.414Z,9.60
2019-04-20T05:12:51.789Z,9.60
2019-04-20T05:15:37.845Z,9.50
2019-04-20T05:18:13.311Z,9.50
2019-04-20T05:20:54.701Z,9.50
2019-04-20T05:23:21.120Z,9.50
2019-04-20T05:26:14.106Z,9.50
2019-04-20T05:28:33.326Z,9.50
2019-04-20T05:30:58.204Z,9.50
2019-04-20T05:33:42.529Z,9.60
2019-04-20T05:36:17.595Z,9.60
2019-04-20T05:38:54.276Z,9.70
2019-04-20T05:41:21.505Z,9.80
2019-04-20T05:43:56.523Z,9.80
2019-04-20T05:46:31.996Z,9.90
2019-04-20T05:49:08.961Z,10.00
2019-04-20T05:56:56.450Z,10.30
2019-04-20T05:59:11.172Z,10.40
2019-04-20T06:01:53.266Z,10.50
2019-04-20T06:04:29.989Z,10.60
2019-04-20T06:06:56.400Z,10.70
2019-04-20T06:09:28.666Z,10.80
2019-04-20T06:12:13.055Z,10.90
2019-04-20T06:14:44.333Z,11.00
2019-04-20T06:17:40.094Z,11.10
2019-04-20T06:20:12.635Z,11.20
2019-04-20T06:22:51.111Z,11.30
2019-04-20T06:28:00.963Z,11.60
2019-04-20T06:30:22.644Z,11.70
2019-04-20T06:33:53.601Z,11.90
2019-04-20T06:36:27.506Z,12.00
2019-04-20T06:43:45.802Z,12.80
2019-04-20T06:46:16.189Z,13.30
2019-04-20T06:48:51.611Z,13.90
2019-04-20T06:51:23.357Z,14.50
2019-04-20T06:53:52.567Z,15.10
2019-04-20T06:56:41.735Z,15.60
2019-04-20T06:59:21.574Z,16.00
2019-04-20T07:01:51.511Z,16.20
2019-04-20T07:04:34.433Z,16.60
2019-04-20T07:09:22.012Z,17.20
2019-04-20T07:11:51.510Z,17.50
2019-04-20T07:14:11.115Z,17.90
2019-04-20T07:17:24.406Z,18.30
2019-04-20T07:19:50.123Z,18.50
2019-04-20T07:22:33.735Z,18.40
2019-04-20T07:25:20.316Z,18.40
2019-04-20T07:27:35.445Z,18.30
2019-04-20T07:30:35.326Z,18.70
2019-04-20T07:32:49.599Z,19.50
2019-04-20T07:35:14.108Z,20.10
2019-04-20T07:38:09.580Z,20.30
2019-04-20T07:40:24.496Z,20.70
2019-04-20T07:42:55.547Z,21.00
2019-04-20T07:45:29.573Z,21.20
2019-04-20T07:48:02.346Z,21.30
2019-04-20T07:50:27.040Z,21.60
2019-04-20T07:52:54.512Z,22.10
2019-04-20T07:55:44.548Z,22.70
2019-04-20T07:58:02.783Z,23.10
2019-04-20T08:03:39.086Z,23.80
2019-04-20T08:06:02.477Z,23.90
2019-04-20T08:08:45.308Z,24.20
2019-04-20T08:11:17.961Z,24.60
2019-04-20T08:13:51.044Z,24.80
2019-04-20T08:16:33.150Z,25.40
2019-04-20T08:18:53.868Z,25.80
2019-04-20T08:21:28.411Z,26.00
2019-04-20T08:23:55.682Z,26.20
2019-04-20T08:26:22.534Z,26.20
2019-04-20T08:29:00.333Z,25.80
2019-04-20T08:32:25.924Z,26.30
2019-04-20T08:34:59.124Z,26.40
2019-04-20T08:37:27.822Z,26.10
2019-04-20T08:42:39.946Z,27.40
2019-04-20T08:45:07.262Z,26.90
2019-04-20T08:47:48.704Z,26.70
2019-04-20T08:55:18.021Z,27.30
2019-04-20T08:57:51.593Z,28.00
2019-04-20T09:00:29.466Z,28.70
2019-04-20T09:03:02.331Z,29.30
2019-04-20T09:05:40.070Z,29.50
2019-04-20T09:08:08.149Z,29.50
2019-04-20T09:10:49.167Z,28.80
2019-04-20T09:13:16.973Z,28.30
2019-04-20T09:15:36.656Z,28.40
2019-04-20T09:18:21.431Z,27.30
2019-04-20T09:20:52.913Z,26.60
2019-04-20T09:23:38.083Z,28.60
2019-04-20T09:26:10.178Z,29.60
2019-04-20T09:28:37.350Z,30.20
2019-04-20T09:31:21.515Z,30.70
2019-04-20T09:34:15.437Z,30.70
2019-04-20T09:36:53.731Z,30.40
2019-04-20T09:39:51.916Z,30.60
2019-04-20T09:42:25.982Z,31.60
2019-04-20T09:45:00.669Z,32.50
2019-04-20T09:47:37.014Z,32.90
2019-04-20T09:51:13.844Z,33.00
2019-04-20T09:53:33.632Z,33.70
2019-04-20T09:56:14.541Z,34.20
2019-04-20T09:58:52.174Z,34.90
2019-04-20T10:01:13.639Z,34.50
2019-04-20T10:03:34.552Z,34.40
2019-04-20T10:06:05.571Z,34.90
2019-04-20T10:08:43.508Z,35.00
2019-04-20T10:11:08.168Z,34.80
2019-04-20T10:13:38.586Z,34.80
2019-04-20T10:16:09.014Z,33.60
2019-04-20T10:18:45.478Z,33.60
2019-04-20T10:21:11.915Z,33.40
2019-04-20T10:23:42.828Z,33.70
2019-04-20T10:26:14.373Z,34.10
2019-04-20T10:28:45.614Z,34.00
2019-04-20T10:31:16.782Z,34.10
2019-04-20T10:33:47.330Z,33.50
2019-04-20T10:36:33.341Z,32.90
2019-04-20T10:39:06.589Z,34.30
2019-04-20T10:41:45.189Z,34.70
2019-04-20T10:44:11.047Z,35.40
2019-04-20T10:46:42.864Z,35.20
2019-04-20T10:49:13.431Z,35.00
2019-04-20T10:51:44.007Z,35.10
2019-04-20T10:54:14.500Z,36.60
2019-04-20T10:56:45.725Z,36.60
2019-04-20T10:59:16.284Z,35.60
2019-04-20T11:01:47.562Z,36.90
2019-04-20T11:04:18.800Z,38.60
2019-04-20T11:06:50.357Z,38.00
2019-04-20T11:09:20.896Z,36.00
2019-04-20T11:11:52.390Z,36.70
2019-04-20T11:14:29.085Z,36.90
2019-04-20T11:16:56.129Z,36.50
2019-04-20T11:19:27.417Z,35.20
2019-04-20T11:21:58.570Z,36.60
2019-04-20T11:24:30.093Z,37.40
2019-04-20T11:27:00.803Z,38.70
2019-04-20T11:29:31.905Z,38.40
2019-04-20T11:32:03.143Z,36.40
2019-04-20T11:34:38.420Z,36.10
2019-04-20T11:37:06.856Z,37.70
2019-04-20T11:39:39.117Z,38.10
2019-04-20T11:42:09.984Z,37.80
2019-04-20T11:44:40.550Z,38.20
2019-04-20T11:47:11.094Z,37.70
2019-04-20T11:49:41.692Z,37.30
2019-04-20T11:52:13.633Z,37.60
2019-04-20T11:54:46.350Z,37.70
2019-04-20T11:57:19.519Z,38.50
2019-04-20T11:59:50.862Z,38.80
2019-04-20T12:02:42.526Z,39.80
2019-04-20T12:05:21.268Z,39.10
2019-04-20T12:07:58.567Z,38.70
2019-04-20T12:10:30.100Z,38.30
2019-04-20T12:13:01.862Z,39.40
2019-04-20T12:15:35.141Z,38.30
2019-04-20T12:18:05.307Z,38.00
2019-04-20T12:20:36.672Z,38.70
2019-04-20T12:23:08.430Z,39.20
2019-04-20T12:25:40.953Z,40.90
2019-04-20T12:28:11.558Z,42.20
2019-04-20T12:30:42.141Z,42.40
2019-04-20T12:33:13.612Z,42.60
2019-04-20T12:35:44.484Z,42.70
2019-04-20T12:38:15.028Z,41.30
2019-04-20T12:40:46.169Z,40.80
2019-04-20T12:43:20.359Z,40.10
2019-04-20T12:45:51.708Z,40.80
2019-04-20T12:48:23.792Z,39.70
2019-04-20T12:50:55.436Z,39.20
2019-04-20T12:53:26.527Z,40.30
2019-04-20T12:55:57.017Z,41.30
2019-04-20T12:58:28.445Z,40.30
2019-04-20T13:01:00.543Z,39.30
2019-04-20T13:03:31.730Z,39.90
2019-04-20T13:06:03.830Z,40.60
2019-04-20T13:08:39.107Z,40.80
2019-04-20T13:11:10.942Z,42.10
2019-04-20T13:13:52.543Z,41.70
2019-04-20T13:16:30.477Z,42.00
2019-04-20T13:19:03.562Z,41.20
2019-04-20T13:21:34.873Z,40.90
2019-04-20T13:24:06.758Z,40.80
2019-04-20T13:26:38.801Z,42.10
2019-04-20T13:29:09.327Z,41.40
2019-04-20T13:31:40.070Z,41.30
2019-04-20T13:34:13.268Z,42.20
2019-04-20T13:36:44.161Z,42.50
2019-04-20T13:39:16.192Z,41.90
2019-04-20T13:41:57.743Z,42.20
2019-04-20T13:44:20.080Z,41.20
2019-04-20T13:46:52.056Z,41.20
2019-04-20T13:49:29.153Z,40.00
2019-04-20T13:51:59.762Z,39.10
2019-04-20T13:54:31.636Z,39.90
2019-04-20T13:57:03.709Z,41.10
2019-04-20T13:59:39.929Z,40.80
2019-04-20T14:02:29.263Z,41.00
2019-04-20T14:05:02.758Z,41.60
2019-04-20T14:07:35.427Z,41.30
2019-04-20T14:10:07.005Z,41.30
2019-04-20T14:12:48.867Z,41.10
2019-04-20T14:15:11.233Z,40.80
2019-04-20T14:17:41.817Z,41.10
2019-04-20T14:20:16.799Z,41.60
2019-04-20T14:22:45.535Z,42.00
2019-04-20T14:25:16.067Z,40.60
2019-04-20T14:27:46.699Z,40.70
2019-04-20T14:30:17.537Z,39.50
2019-04-20T14:32:48.233Z,39.10
2019-04-20T14:35:18.872Z,37.70
2019-04-20T14:37:49.938Z,38.00
2019-04-20T14:40:21.994Z,39.20
2019-04-20T14:42:54.792Z,39.10
2019-04-20T14:45:24.907Z,38.80
2019-04-20T14:47:55.540Z,38.80
2019-04-20T14:50:27.515Z,39.20
2019-04-20T14:52:58.033Z,39.30
2019-04-20T14:55:29.232Z,39.30
2019-04-20T14:58:05.681Z,39.40
2019-04-20T15:00:58.554Z,38.90
2019-04-20T15:03:33.145Z,39.20
2019-04-20T15:06:05.350Z,39.60
2019-04-20T15:08:36.793Z,39.50
2019-04-20T15:11:07.571Z,38.70
2019-04-20T15:13:38.621Z,38.60
2019-04-20T15:16:10.720Z,37.90
2019-04-20T15:18:47.077Z,37.50
2019-04-20T15:21:18.004Z,37.40
2019-04-20T15:23:48.416Z,37.80
2019-04-20T15:26:20.342Z,36.80
2019-04-20T15:28:50.910Z,36.50
2019-04-20T15:31:21.439Z,37.30
2019-04-20T15:33:52.812Z,37.60
2019-04-20T15:36:24.238Z,36.90
2019-04-20T15:38:54.775Z,36.60
2019-04-20T15:41:25.331Z,36.90
2019-04-20T15:43:55.785Z,36.90
2019-04-20T15:46:27.613Z,36.40
2019-04-20T15:48:58.226Z,35.40
2019-04-20T15:51:29.920Z,34.30
2019-04-20T15:54:01.828Z,33.10
2019-04-20T15:56:33.387Z,32.80
2019-04-20T15:59:04.360Z,33.70
2019-04-20T16:01:47.172Z,34.10
2019-04-20T16:04:52.511Z,34.10
2019-04-20T16:07:23.500Z,33.70
2019-04-20T16:09:54.953Z,33.70
2019-04-20T16:12:26.783Z,33.60
2019-04-20T16:14:57.720Z,33.50
2019-04-20T16:17:36.404Z,33.60
2019-04-20T16:20:08.030Z,33.50
2019-04-20T16:22:34.152Z,32.90
2019-04-20T16:25:17.254Z,32.00
2019-04-20T16:27:47.939Z,31.50
2019-04-20T16:30:19.872Z,31.00
2019-04-20T16:32:50.549Z,30.40
2019-04-20T16:35:22.470Z,29.50
2019-04-20T16:37:54.279Z,27.80
2019-04-20T16:40:25.435Z,26.90
2019-04-20T16:42:56.381Z,25.80
2019-04-20T16:45:27.540Z,25.00
2019-04-20T16:47:59.949Z,24.20
2019-04-20T16:50:31.095Z,23.50
2019-04-20T16:53:01.629Z,23.20
2019-04-20T16:55:32.642Z,22.70
2019-04-20T16:58:03.898Z,22.50
2019-04-20T17:00:35.613Z,22.30
2019-04-20T17:03:08.995Z,22.00
2019-04-20T17:05:39.609Z,21.80
2019-04-20T17:08:11.062Z,21.60
2019-04-20T17:10:41.584Z,21.10
2019-04-20T17:13:12.012Z,20.90
2019-04-20T17:15:43.441Z,20.70
2019-04-20T17:18:13.989Z,20.50
2019-04-20T17:20:44.519Z,20.40
2019-04-20T17:23:15.114Z,20.30
2019-04-20T17:25:46.079Z,20.10
2019-04-20T17:28:35.666Z,20.10
2019-04-20T17:31:27.066Z,19.90
2019-04-20T17:34:37.708Z,19.80
2019-04-20T17:36:49.322Z,19.60
2019-04-20T17:39:33.970Z,19.30
2019-04-20T17:42:09.598Z,19.20
2019-04-20T17:44:42.830Z,19.10
2019-04-20T17:47:13.604Z,19.00
2019-04-20T17:49:42.331Z,18.80
2019-04-20T17:52:27.756Z,18.70
2019-04-20T17:54:43.736Z,18.50
2019-04-20T17:57:15.262Z,18.30
2019-04-20T17:59:53.010Z,18.20
2019-04-20T18:02:59.289Z,18.00
2019-04-20T18:05:55.816Z,17.90
2019-04-20T18:08:27.153Z,17.80
2019-04-20T18:10:53.088Z,17.60
2019-04-20T18:13:19.919Z,17.50
2019-04-20T18:15:57.429Z,17.40
2019-04-20T18:18:47.788Z,17.30
2019-04-20T18:21:28.644Z,17.20
2019-04-20T18:24:00.417Z,17.10
2019-04-20T18:26:49.158Z,17.00
2019-04-20T18:29:21.343Z,16.80
2019-04-20T18:31:53.816Z,16.70
2019-04-20T18:34:38.374Z,16.60
2019-04-20T18:37:14.276Z,16.50
2019-04-20T18:39:51.429Z,16.40
2019-04-20T18:42:25.090Z,16.40
2019-04-20T18:45:09.073Z,16.20
2019-04-20T18:47:42.250Z,16.00
2019-04-20T18:50:04.411Z,16.00
2019-04-20T18:52:27.421Z,15.90
2019-04-20T18:54:59.376Z,15.70
2019-04-20T18:57:32.530Z,15.70
2019-04-20T19:00:04.668Z,15.60
2019-04-20T19:02:41.160Z,15.40
2019-04-20T19:05:08.629Z,15.30
2019-04-20T19:07:45.388Z,15.30
2019-04-20T19:10:18.670Z,15.20
2019-04-20T19:12:54.337Z,15.10
2019-04-20T19:15:55.195Z,15.10
2019-04-20T19:18:38.078Z,14.90
2019-04-20T19:20:59.143Z,14.90
2019-04-20T19:23:29.977Z,14.70
2019-04-20T19:26:06.138Z,14.70
2019-04-20T19:28:42.225Z,14.70
2019-04-20T19:31:17.462Z,14.60
2019-04-20T19:33:56.447Z,14.50
2019-04-20T19:36:20.057Z,14.40
2019-04-20T19:38:52.280Z,14.30
2019-04-20T19:41:27.351Z,14.20
2019-04-20T19:43:54.971Z,14.10
2019-04-20T19:46:46.354Z,14.10
2019-04-20T19:48:58.347Z,14.00
2019-04-20T19:51:40.943Z,14.10
2019-04-20T19:54:20.172Z,14.00
2019-04-20T19:56:41.456Z,14.00
2019-04-20T19:59:11.048Z,14.00
2019-04-20T20:01:31.606Z,13.90
2019-04-20T20:04:05.533Z,13.80
2019-04-20T20:06:39.056Z,13.70
2019-04-20T20:09:11.218Z,13.70
2019-04-20T20:11:42.931Z,13.70
2019-04-20T20:14:13.266Z,13.70
2019-04-20T20:17:02.714Z,13.70
2019-04-20T20:19:32.406Z,13.70
2019-04-20T20:22:04.567Z,13.60
2019-04-20T20:24:21.454Z,13.50
2019-04-20T20:26:58.408Z,13.50
2019-04-20T20:29:34.263Z,13.40
2019-04-20T20:32:10.182Z,13.50
2019-04-20T20:34:36.118Z,13.40
2019-04-20T20:37:06.282Z,13.40
2019-04-20T20:39:36.375Z,13.30
2019-04-20T20:42:18.819Z,13.20
2019-04-20T20:44:49.831Z,13.20
2019-04-20T20:47:37.314Z,13.20
2019-04-20T20:50:11.429Z,13.10
2019-04-20T20:52:32.193Z,13.10
2019-04-20T20:54:53.969Z,13.10
2019-04-20T20:57:24.292Z,13.00
2019-04-20T20:59:57.543Z,13.00
2019-04-20T21:02:37.640Z,12.90
2019-04-20T21:04:57.594Z,12.90
2019-04-20T21:07:28.874Z,12.90
2019-04-20T21:10:00.612Z,12.80
2019-04-20T21:12:31.179Z,12.80
2019-04-20T21:15:08.224Z,12.80
2019-04-20T21:17:41.727Z,12.80
2019-04-20T21:20:20.244Z,12.70
2019-04-20T21:22:54.550Z,12.70
2019-04-20T21:25:18.979Z,12.70
2019-04-20T21:27:50.823Z,12.60
2019-04-20T21:30:28.186Z,12.60
2019-04-20T21:32:57.319Z,12.60
2019-04-20T21:35:25.956Z,12.60
2019-04-20T21:38:04.476Z,12.50
2019-04-20T21:40:37.176Z,12.50
2019-04-20T21:43:06.785Z,12.40
2019-04-20T21:45:37.209Z,12.40
2019-04-20T21:48:11.475Z,12.40
2019-04-20T21:50:58.292Z,12.40
2019-04-20T21:53:18.463Z,12.40
2019-04-20T21:55:43.811Z,12.30
2019-04-20T21:58:17.636Z,12.30
2019-04-20T22:01:07.167Z,12.20
2019-04-20T22:03:26.887Z,12.20
2019-04-20T22:06:08.932Z,12.20
2019-04-20T22:08:44.482Z,12.20
2019-04-20T22:11:11.807Z,12.20
2019-04-20T22:13:45.502Z,12.10
2019-04-20T22:16:16.342Z,12.10
2019-04-20T22:18:54.034Z,12.10
2019-04-20T22:21:27.856Z,12.00
2019-04-20T22:24:04.209Z,12.00
2019-04-20T22:26:32.138Z,12.00
2019-04-20T22:28:56.193Z,12.00
2019-04-20T22:31:26.928Z,11.90
2019-04-20T22:34:00.732Z,11.90
2019-04-20T22:36:34.015Z,11.80
2019-04-20T22:39:10.103Z,11.80
2019-04-20T22:42:03.422Z,11.70
2019-04-20T22:44:32.412Z,11.70
2019-04-20T22:47:05.428Z,11.60
2019-04-20T22:49:50.046Z,11.50
2019-04-20T22:52:27.806Z,11.50
2019-04-20T22:54:54.742Z,11.50
2019-04-20T22:57:23.596Z,11.40
2019-04-20T22:59:50.554Z,11.40
2019-04-20T23:02:16.510Z,11.30
2019-04-20T23:04:48.775Z,11.30
2019-04-20T23:07:19.281Z,11.20
2019-04-20T23:09:54.520Z,11.20
2019-04-20T23:12:25.236Z,11.20
2019-04-20T23:14:56.434Z,11.10
2019-04-20T23:17:36.512Z,11.10
2019-04-20T23:20:02.796Z,11.10
2019-04-20T23:22:37.007Z,11.20
2019-04-20T23:25:04.878Z,11.20
2019-04-20T23:27:37.281Z,11.10
2019-04-20T23:30:12.584Z,11.00
2019-04-20T23:32:42.026Z,11.00
2019-04-20T23:35:18.098Z,10.90
2019-04-20T23:37:46.338Z,10.80
2019-04-20T23:40:16.962Z,10.80
2019-04-20T23:42:51.750Z,10.80
2019-04-20T23:45:57.122Z,10.80
2019-04-20T23:48:38.967Z,10.80
2019-04-20T23:51:33.275Z,10.80
2019-04-20T23:53:53.897Z,10.70
2019-04-20T23:56:16.993Z,10.80
2019-04-20T23:58:48.323Z,10.80
